createdAt,value
2018-05-10T00:01:13.512Z,18.50
2018-05-10T00:05:16.074Z,18.40
2018-05-10T00:09:18.598Z,18.40
2018-05-10T00:13:21.128Z,18.40
2018-05-10T00:17:23.640Z,18.30
2018-05-10T00:21:26.732Z,18.20
2018-05-10T00:25:29.260Z,18.10
2018-05-10T00:29:31.797Z,18.10
2018-05-10T00:33:34.327Z,18.00
2018-05-10T00:37:36.843Z,18.00
2018-05-10T00:41:40.144Z,17.90
2018-05-10T00:45:43.434Z,17.80
2018-05-10T00:49:46.729Z,17.80
2018-05-10T00:53:49.273Z,17.70
2018-05-10T00:57:51.790Z,17.80
2018-05-10T01:01:54.316Z,17.70
2018-05-10T01:05:56.852Z,17.70
2018-05-10T01:09:59.388Z,17.70
2018-05-10T01:14:01.919Z,17.60
2018-05-10T01:18:05.100Z,17.60
2018-05-10T01:22:07.644Z,17.50
2018-05-10T01:26:10.935Z,17.40
2018-05-10T01:30:14.223Z,17.40
2018-05-10T01:34:16.751Z,17.30
2018-05-10T01:38:19.277Z,17.30
2018-05-10T01:42:33.300Z,17.30
2018-05-10T01:46:36.029Z,17.20
2018-05-10T01:50:39.355Z,17.10
2018-05-10T01:54:41.915Z,17.00
2018-05-10T01:58:44.508Z,17.10
2018-05-10T02:02:47.028Z,17.00
2018-05-10T02:06:49.556Z,16.90
2018-05-10T02:10:52.088Z,16.90
2018-05-10T02:14:55.384Z,16.80
2018-05-10T02:18:58.684Z,16.70
2018-05-10T02:23:01.968Z,16.70
2018-05-10T02:27:04.516Z,16.60
2018-05-10T02:31:07.060Z,16.60
2018-05-10T02:35:10.372Z,16.60
2018-05-10T02:39:13.999Z,16.60
2018-05-10T02:43:16.516Z,16.50
2018-05-10T02:47:19.065Z,16.50
2018-05-10T02:51:21.592Z,16.40
2018-05-10T02:55:24.129Z,16.40
2018-05-10T02:59:26.662Z,16.30
2018-05-10T03:03:29.187Z,16.30
2018-05-10T03:07:31.732Z,16.20
2018-05-10T03:11:34.327Z,16.20
2018-05-10T03:15:36.884Z,16.10
2018-05-10T03:19:39.432Z,16.10
2018-05-10T03:23:41.967Z,16.00
2018-05-10T03:27:44.517Z,16.00
2018-05-10T03:31:47.080Z,16.00
2018-05-10T03:35:50.397Z,15.80
2018-05-10T03:39:52.969Z,15.80
2018-05-10T03:43:56.320Z,15.70
2018-05-10T03:47:58.896Z,15.70
2018-05-10T03:52:01.447Z,15.70
2018-05-10T03:56:03.995Z,15.70
2018-05-10T04:00:06.542Z,15.60
2018-05-10T04:04:33.608Z,15.60
2018-05-10T04:08:47.901Z,15.60
2018-05-10T04:12:50.449Z,15.50
2018-05-10T04:16:52.991Z,15.50
2018-05-10T04:20:55.528Z,15.50
2018-05-10T04:24:58.064Z,15.40
2018-05-10T04:29:00.604Z,15.50
2018-05-10T04:33:03.996Z,15.50
2018-05-10T04:37:06.544Z,15.50
2018-05-10T04:41:09.083Z,15.50
2018-05-10T04:45:11.621Z,15.50
2018-05-10T04:49:14.148Z,15.60
2018-05-10T04:53:16.720Z,15.60
2018-05-10T04:57:19.266Z,15.60
2018-05-10T05:01:22.583Z,15.70
2018-05-10T05:05:25.896Z,15.70
2018-05-10T05:09:28.427Z,15.60
2018-05-10T05:13:30.981Z,15.70
2018-05-10T05:17:33.527Z,15.80
2018-05-10T05:21:36.926Z,16.00
2018-05-10T05:25:39.396Z,15.90
2018-05-10T05:29:41.920Z,16.10
2018-05-10T05:33:44.478Z,16.20
2018-05-10T05:37:47.812Z,16.30
2018-05-10T05:41:50.388Z,16.30
2018-05-10T05:45:52.939Z,16.40
2018-05-10T05:49:55.489Z,16.50
2018-05-10T05:53:58.032Z,16.60
2018-05-10T05:58:01.331Z,16.80
2018-05-10T06:02:03.892Z,16.80
2018-05-10T06:06:06.431Z,16.90
2018-05-10T06:10:08.960Z,17.00
2018-05-10T06:14:11.496Z,17.10
2018-05-10T06:18:14.044Z,17.30
2018-05-10T06:22:16.579Z,17.40
2018-05-10T06:26:19.111Z,17.50
2018-05-10T06:30:21.707Z,17.70
2018-05-10T06:34:24.345Z,17.90
2018-05-10T06:38:26.909Z,17.90
2018-05-10T06:42:29.442Z,18.10
2018-05-10T06:46:31.983Z,18.20
2018-05-10T06:50:34.499Z,18.30
2018-05-10T06:54:37.096Z,18.40
2018-05-10T06:58:39.603Z,18.50
2018-05-10T07:02:42.943Z,18.70
2018-05-10T07:06:45.504Z,18.60
2018-05-10T07:10:48.081Z,18.80
2018-05-10T07:14:50.602Z,18.90
2018-05-10T07:18:53.140Z,18.90
2018-05-10T07:22:55.686Z,19.00
2018-05-10T07:26:58.264Z,19.10
2018-05-10T07:31:00.804Z,19.20
2018-05-10T07:35:04.095Z,19.40
2018-05-10T07:39:06.642Z,19.30
2018-05-10T07:43:09.209Z,19.40
2018-05-10T07:47:11.756Z,19.50
2018-05-10T07:51:14.296Z,19.70
2018-05-10T07:55:16.807Z,19.80
2018-05-10T07:59:19.378Z,19.90
2018-05-10T08:03:21.932Z,20.10
2018-05-10T08:07:24.475Z,20.20
2018-05-10T08:11:27.030Z,20.30
2018-05-10T08:15:29.568Z,20.40
2018-05-10T08:19:32.881Z,20.70
2018-05-10T08:23:47.197Z,20.60
2018-05-10T08:27:49.728Z,20.80
2018-05-10T08:31:52.269Z,20.90
2018-05-10T08:35:54.799Z,21.00
2018-05-10T08:39:57.322Z,21.00
2018-05-10T08:43:59.855Z,21.00
2018-05-10T08:48:03.157Z,21.10
2018-05-10T08:52:06.529Z,21.20
2018-05-10T08:56:09.056Z,21.20
2018-05-10T09:00:11.589Z,21.30
2018-05-10T09:04:14.163Z,21.50
2018-05-10T09:08:16.691Z,21.60
2018-05-10T09:12:19.251Z,21.70
2018-05-10T09:16:21.802Z,21.90
2018-05-10T09:20:24.385Z,22.00
2018-05-10T09:24:26.940Z,22.10
2018-05-10T09:28:30.316Z,22.40
2018-05-10T09:32:32.860Z,22.30
2018-05-10T09:36:35.397Z,22.40
2018-05-10T09:40:37.986Z,22.60
2018-05-10T09:44:40.555Z,22.80
2018-05-10T09:48:43.095Z,23.00
2018-05-10T09:52:45.856Z,23.10
2018-05-10T09:56:48.339Z,23.20
2018-05-10T10:00:51.637Z,23.50
2018-05-10T10:04:54.179Z,23.50
2018-05-10T10:08:56.730Z,23.60
2018-05-10T10:13:00.027Z,23.70
2018-05-10T10:17:03.344Z,23.80
2018-05-10T10:21:05.862Z,23.80
2018-05-10T10:25:08.421Z,23.90
2018-05-10T10:29:10.967Z,24.10
2018-05-10T10:33:13.517Z,24.30
2018-05-10T10:37:16.071Z,24.20
2018-05-10T10:41:19.716Z,24.30
2018-05-10T10:45:22.272Z,24.20
2018-05-10T10:49:24.811Z,24.10
2018-05-10T10:53:27.361Z,24.00
2018-05-10T10:57:29.931Z,24.00
2018-05-10T11:01:32.529Z,24.00
2018-05-10T11:05:34.998Z,24.00
2018-05-10T11:09:37.543Z,24.00
2018-05-10T11:13:40.843Z,23.90
2018-05-10T11:17:43.386Z,23.90
2018-05-10T11:21:45.908Z,23.90
2018-05-10T11:25:48.467Z,23.80
2018-05-10T11:29:51.008Z,23.60
2018-05-10T11:33:53.545Z,23.50
2018-05-10T11:37:56.115Z,23.50
2018-05-10T11:41:58.636Z,23.40
2018-05-10T11:46:01.174Z,23.30
2018-05-10T11:50:03.713Z,23.10
2018-05-10T11:54:06.252Z,23.00
2018-05-10T11:58:08.819Z,22.90
2018-05-10T12:02:11.335Z,22.70
2018-05-10T12:06:13.883Z,22.50
2018-05-10T12:10:16.428Z,22.40
2018-05-10T12:14:18.958Z,22.30
2018-05-10T12:18:21.500Z,22.10
2018-05-10T12:22:24.020Z,22.00
2018-05-10T12:26:26.566Z,21.90
2018-05-10T12:30:30.827Z,21.80
2018-05-10T12:34:34.142Z,21.60
2018-05-10T12:38:36.674Z,21.60
2018-05-10T12:42:39.212Z,21.50
2018-05-10T12:46:41.735Z,21.40
2018-05-10T12:50:44.336Z,21.30
2018-05-10T12:54:46.888Z,21.20
2018-05-10T12:58:49.421Z,21.10
2018-05-10T13:02:52.952Z,20.80
2018-05-10T13:06:56.315Z,20.80
2018-05-10T13:10:59.547Z,20.70
2018-05-10T13:15:02.093Z,20.60
2018-05-10T13:19:04.638Z,20.60
2018-05-10T13:23:07.178Z,20.50
2018-05-10T13:27:09.696Z,20.40
2018-05-10T13:31:12.236Z,20.40
2018-05-10T13:35:14.767Z,20.30
2018-05-10T13:39:20.466Z,20.20
2018-05-10T13:43:23.006Z,20.10
2018-05-10T13:47:25.555Z,20.20
2018-05-10T13:51:28.080Z,20.10
2018-05-10T13:55:30.624Z,20.10
2018-05-10T13:59:33.169Z,20.10
2018-05-10T14:03:35.709Z,20.10
2018-05-10T14:07:38.221Z,20.20
2018-05-10T14:11:40.750Z,20.30
2018-05-10T14:15:43.278Z,20.40
2018-05-10T14:19:45.811Z,20.40
2018-05-10T14:23:48.358Z,20.50
2018-05-10T14:27:50.873Z,20.60
2018-05-10T14:31:53.405Z,20.50
2018-05-10T14:35:56.700Z,20.40
2018-05-10T14:39:59.223Z,20.30
2018-05-10T14:44:01.758Z,20.20
2018-05-10T16:11:36.325Z,20.00
2018-05-10T16:15:38.851Z,17.60
2018-05-10T16:19:41.404Z,17.40
2018-05-10T16:23:44.718Z,17.40
2018-05-10T16:27:47.219Z,17.30
2018-05-10T16:31:49.741Z,17.40
2018-05-10T16:35:52.264Z,17.40
2018-05-10T16:39:55.560Z,17.30
2018-05-10T16:43:58.863Z,17.20
2018-05-10T16:48:01.369Z,17.20
2018-05-10T16:52:03.907Z,17.20
2018-05-10T16:56:06.439Z,17.10
2018-05-10T17:00:08.979Z,17.10
2018-05-10T17:04:11.520Z,17.00
2018-05-10T17:08:14.629Z,17.00
2018-05-10T17:12:17.166Z,16.90
2018-05-10T17:16:19.704Z,16.90
2018-05-10T17:20:22.244Z,16.80
2018-05-10T17:24:25.754Z,16.70
2018-05-10T17:28:29.052Z,16.60
2018-05-10T17:32:31.587Z,16.60
2018-05-10T17:36:34.121Z,16.60
2018-05-10T17:40:37.421Z,16.50
2018-05-10T17:44:40.727Z,16.50
2018-05-10T17:48:43.996Z,16.40
2018-05-10T17:52:46.523Z,16.40
2018-05-10T17:56:49.124Z,16.40
2018-05-10T18:00:51.704Z,16.30
2018-05-10T18:04:54.210Z,16.20
2018-05-10T18:08:56.738Z,16.20
2018-05-10T18:12:59.273Z,16.10
2018-05-10T18:17:01.892Z,16.10
2018-05-10T18:21:04.438Z,16.10
2018-05-10T18:25:07.388Z,16.00
2018-05-10T18:29:10.006Z,15.90
2018-05-10T18:33:12.552Z,15.90
2018-05-10T18:37:15.246Z,15.80
2018-05-10T18:41:18.627Z,15.80
2018-05-10T18:45:21.167Z,15.70
2018-05-10T18:49:24.440Z,15.70
2018-05-10T18:53:26.983Z,15.60
2018-05-10T18:57:29.508Z,15.60
2018-05-10T19:01:32.832Z,15.60
2018-05-10T19:05:36.130Z,15.50
2018-05-10T19:09:39.413Z,15.50
2018-05-10T19:13:42.029Z,15.40
2018-05-10T19:17:44.503Z,15.40
2018-05-10T19:21:47.799Z,15.30
2018-05-10T19:25:50.339Z,15.30
2018-05-10T19:29:52.872Z,15.30
2018-05-10T19:33:55.403Z,15.30
2018-05-10T19:37:57.952Z,15.30
2018-05-10T19:42:01.240Z,15.20
2018-05-10T19:46:03.780Z,15.20
2018-05-10T19:50:06.318Z,15.20
2018-05-10T19:54:09.599Z,15.20
2018-05-10T19:58:12.136Z,15.10
2018-05-10T20:02:14.671Z,15.10
2018-05-10T20:06:17.221Z,15.20
2018-05-10T20:10:19.759Z,15.10
2018-05-10T20:14:23.035Z,15.10
2018-05-10T20:18:25.583Z,15.10
2018-05-10T20:22:28.124Z,15.10
2018-05-10T20:26:30.656Z,15.10
2018-05-10T20:30:33.198Z,15.10
2018-05-10T20:34:35.698Z,15.00
2018-05-10T20:38:39.944Z,15.00
2018-05-10T20:42:42.619Z,14.90
2018-05-10T20:46:45.272Z,15.00
2018-05-10T20:50:47.799Z,15.00
2018-05-10T20:54:50.307Z,14.90
2018-05-10T20:58:52.844Z,14.90
2018-05-10T21:02:56.164Z,14.90
2018-05-10T21:06:58.722Z,14.80
2018-05-10T21:11:01.520Z,14.80
2018-05-10T21:15:04.053Z,14.80
2018-05-10T21:19:06.585Z,14.90
2018-05-10T21:23:14.019Z,14.90
2018-05-10T21:27:17.425Z,14.80
2018-05-10T21:31:20.040Z,14.80
2018-05-10T21:35:22.664Z,14.80
2018-05-10T21:39:26.012Z,14.70
2018-05-10T21:43:28.658Z,14.70
2018-05-10T21:47:32.037Z,14.70
2018-05-10T21:51:35.299Z,14.70
2018-05-10T21:55:37.924Z,14.70
2018-05-10T21:59:40.502Z,14.60
2018-05-10T22:03:43.181Z,14.60
2018-05-10T22:07:45.785Z,14.60
2018-05-10T22:11:48.327Z,14.60
2018-05-10T22:15:50.864Z,14.50
2018-05-10T22:19:53.391Z,14.50
2018-05-10T22:23:55.940Z,14.40
2018-05-10T22:27:58.475Z,14.40
2018-05-10T22:32:01.011Z,14.40
2018-05-10T22:36:03.568Z,14.40
2018-05-10T22:40:06.099Z,14.30
2018-05-10T22:44:09.400Z,14.30
2018-05-10T22:48:12.699Z,14.30
2018-05-10T22:52:15.994Z,14.20
2018-05-10T22:56:19.290Z,14.20
2018-05-10T23:00:21.813Z,14.10
2018-05-10T23:04:24.353Z,14.20
2018-05-10T23:08:26.881Z,14.10
2018-05-10T23:12:29.412Z,14.10
2018-05-10T23:16:31.950Z,14.10
2018-05-10T23:20:34.468Z,14.10
2018-05-10T23:24:37.001Z,14.00
2018-05-10T23:28:40.307Z,14.00
2018-05-10T23:32:42.839Z,13.90
2018-05-10T23:36:45.383Z,14.00
2018-05-10T23:40:47.901Z,13.90
2018-05-10T23:44:50.431Z,13.90
2018-05-10T23:48:53.733Z,13.80
2018-05-10T23:52:57.028Z,13.80
2018-05-10T23:56:59.556Z,13.70
